sensor_id;sensor_type;location;lat;lon;timestamp;P1;durP1;ratioP1;P2;durP2;ratioP2
75655;SDS011;64252;51.094;13.714;2023-08-24T00:02:03;6.28;;;3.20;;
75655;SDS011;64252;51.094;13.714;2023-08-24T00:04:29;9.13;;;3.65;;
75655;SDS011;64252;51.094;13.714;2023-08-24T00:06:54;4.53;;;2.97;;
75655;SDS011;64252;51.094;13.714;2023-08-24T00:09:20;5.75;;;3.58;;
75655;SDS011;64252;51.094;13.714;2023-08-24T00:11:46;5.00;;;3.03;;
75655;SDS011;64252;51.094;13.714;2023-08-24T00:14:12;5.25;;;3.33;;
75655;SDS011;64252;51.094;13.714;2023-08-24T00:16:38;5.88;;;3.40;;
75655;SDS011;64252;51.094;13.714;2023-08-24T00:19:06;4.70;;;3.30;;
75655;SDS011;64252;51.094;13.714;2023-08-24T00:21:32;8.25;;;3.80;;
75655;SDS011;64252;51.094;13.714;2023-08-24T00:23:57;7.07;;;3.67;;
75655;SDS011;64252;51.094;13.714;2023-08-24T00:26:25;5.13;;;3.15;;
75655;SDS011;64252;51.094;13.714;2023-08-24T00:28:50;5.18;;;3.22;;
75655;SDS011;64252;51.094;13.714;2023-08-24T00:31:19;7.38;;;3.80;;
75655;SDS011;64252;51.094;13.714;2023-08-24T00:33:47;7.85;;;3.88;;
75655;SDS011;64252;51.094;13.714;2023-08-24T00:36:13;6.80;;;4.25;;
75655;SDS011;64252;51.094;13.714;2023-08-24T00:38:38;6.38;;;3.58;;
75655;SDS011;64252;51.094;13.714;2023-08-24T00:41:04;6.40;;;3.70;;
75655;SDS011;64252;51.094;13.714;2023-08-24T00:43:30;6.28;;;3.67;;
75655;SDS011;64252;51.094;13.714;2023-08-24T00:45:56;6.22;;;3.63;;
75655;SDS011;64252;51.094;13.714;2023-08-24T00:48:24;7.65;;;3.90;;
75655;SDS011;64252;51.094;13.714;2023-08-24T00:50:57;5.10;;;3.60;;
75655;SDS011;64252;51.094;13.714;2023-08-24T00:53:25;6.90;;;3.90;;
75655;SDS011;64252;51.094;13.714;2023-08-24T00:55:52;5.13;;;3.63;;
75655;SDS011;64252;51.094;13.714;2023-08-24T00:58:19;5.85;;;4.07;;
75655;SDS011;64252;51.094;13.714;2023-08-24T01:00:46;6.35;;;3.75;;
75655;SDS011;64252;51.094;13.714;2023-08-24T01:03:13;5.65;;;3.75;;
75655;SDS011;64252;51.094;13.714;2023-08-24T01:05:38;6.07;;;3.67;;
75655;SDS011;64252;51.094;13.714;2023-08-24T01:08:04;6.85;;;4.03;;
75655;SDS011;64252;51.094;13.714;2023-08-24T01:10:35;6.53;;;4.15;;
75655;SDS011;64252;51.094;13.714;2023-08-24T01:13:10;7.43;;;4.05;;
75655;SDS011;64252;51.094;13.714;2023-08-24T01:15:39;6.60;;;4.05;;
75655;SDS011;64252;51.094;13.714;2023-08-24T01:18:16;7.40;;;4.25;;
75655;SDS011;64252;51.094;13.714;2023-08-24T01:20:45;7.10;;;4.13;;
75655;SDS011;64252;51.094;13.714;2023-08-24T01:23:24;5.40;;;3.83;;
75655;SDS011;64252;51.094;13.714;2023-08-24T01:28:29;6.40;;;3.97;;
75655;SDS011;64252;51.094;13.714;2023-08-24T01:30:56;6.65;;;3.85;;
75655;SDS011;64252;51.094;13.714;2023-08-24T01:33:22;6.63;;;4.45;;
75655;SDS011;64252;51.094;13.714;2023-08-24T01:35:48;6.20;;;3.97;;
75655;SDS011;64252;51.094;13.714;2023-08-24T01:38:14;7.65;;;3.90;;
75655;SDS011;64252;51.094;13.714;2023-08-24T01:43:37;7.20;;;4.30;;
75655;SDS011;64252;51.094;13.714;2023-08-24T01:46:05;6.22;;;4.03;;
75655;SDS011;64252;51.094;13.714;2023-08-24T01:48:32;5.72;;;3.90;;
75655;SDS011;64252;51.094;13.714;2023-08-24T01:50:59;7.95;;;4.35;;
75655;SDS011;64252;51.094;13.714;2023-08-24T01:53:27;8.23;;;4.50;;
75655;SDS011;64252;51.094;13.714;2023-08-24T01:58:21;7.88;;;4.70;;
75655;SDS011;64252;51.094;13.714;2023-08-24T02:00:46;5.85;;;3.83;;
75655;SDS011;64252;51.094;13.714;2023-08-24T02:03:13;5.07;;;3.70;;
75655;SDS011;64252;51.094;13.714;2023-08-24T02:05:38;5.05;;;3.85;;
75655;SDS011;64252;51.094;13.714;2023-08-24T02:08:04;7.68;;;4.50;;
75655;SDS011;64252;51.094;13.714;2023-08-24T02:10:30;6.57;;;3.90;;
75655;SDS011;64252;51.094;13.714;2023-08-24T02:12:56;6.93;;;4.43;;
75655;SDS011;64252;51.094;13.714;2023-08-24T02:15:23;7.07;;;3.90;;
75655;SDS011;64252;51.094;13.714;2023-08-24T02:17:49;6.45;;;4.07;;
75655;SDS011;64252;51.094;13.714;2023-08-24T02:20:15;8.27;;;5.00;;
75655;SDS011;64252;51.094;13.714;2023-08-24T02:22:41;6.05;;;4.15;;
75655;SDS011;64252;51.094;13.714;2023-08-24T02:25:08;7.22;;;4.80;;
75655;SDS011;64252;51.094;13.714;2023-08-24T02:27:35;8.35;;;4.45;;
75655;SDS011;64252;51.094;13.714;2023-08-24T02:30:00;6.70;;;4.40;;
75655;SDS011;64252;51.094;13.714;2023-08-24T02:32:26;6.15;;;3.97;;
75655;SDS011;64252;51.094;13.714;2023-08-24T02:34:52;7.60;;;4.00;;
75655;SDS011;64252;51.094;13.714;2023-08-24T02:37:17;8.30;;;4.22;;
75655;SDS011;64252;51.094;13.714;2023-08-24T02:39:43;6.25;;;4.43;;
75655;SDS011;64252;51.094;13.714;2023-08-24T02:42:09;7.28;;;4.53;;
75655;SDS011;64252;51.094;13.714;2023-08-24T02:44:34;6.47;;;4.28;;
75655;SDS011;64252;51.094;13.714;2023-08-24T02:47:02;7.70;;;4.80;;
75655;SDS011;64252;51.094;13.714;2023-08-24T02:49:28;7.82;;;4.13;;
75655;SDS011;64252;51.094;13.714;2023-08-24T02:51:54;7.55;;;4.38;;
75655;SDS011;64252;51.094;13.714;2023-08-24T02:54:19;8.85;;;4.50;;
75655;SDS011;64252;51.094;13.714;2023-08-24T02:56:48;5.85;;;4.07;;
75655;SDS011;64252;51.094;13.714;2023-08-24T02:59:13;6.47;;;4.43;;
75655;SDS011;64252;51.094;13.714;2023-08-24T03:01:39;7.55;;;4.45;;
75655;SDS011;64252;51.094;13.714;2023-08-24T03:04:06;6.57;;;4.22;;
75655;SDS011;64252;51.094;13.714;2023-08-24T03:06:32;11.23;;;3.88;;
75655;SDS011;64252;51.094;13.714;2023-08-24T03:08:59;5.32;;;3.75;;
75655;SDS011;64252;51.094;13.714;2023-08-24T03:11:29;6.50;;;4.70;;
75655;SDS011;64252;51.094;13.714;2023-08-24T03:13:55;7.85;;;4.25;;
75655;SDS011;64252;51.094;13.714;2023-08-24T03:16:20;6.70;;;4.38;;
75655;SDS011;64252;51.094;13.714;2023-08-24T03:18:46;5.60;;;4.18;;
75655;SDS011;64252;51.094;13.714;2023-08-24T03:21:13;5.85;;;3.97;;
75655;SDS011;64252;51.094;13.714;2023-08-24T03:23:39;5.85;;;3.95;;
75655;SDS011;64252;51.094;13.714;2023-08-24T03:26:06;6.38;;;3.85;;
75655;SDS011;64252;51.094;13.714;2023-08-24T03:28:32;5.43;;;3.90;;
75655;SDS011;64252;51.094;13.714;2023-08-24T03:30:59;6.75;;;4.28;;
75655;SDS011;64252;51.094;13.714;2023-08-24T03:33:26;5.55;;;3.92;;
75655;SDS011;64252;51.094;13.714;2023-08-24T03:35:53;5.75;;;4.45;;
75655;SDS011;64252;51.094;13.714;2023-08-24T03:38:19;8.07;;;4.35;;
75655;SDS011;64252;51.094;13.714;2023-08-24T03:40:45;7.53;;;4.55;;
75655;SDS011;64252;51.094;13.714;2023-08-24T03:43:11;9.77;;;4.70;;
75655;SDS011;64252;51.094;13.714;2023-08-24T03:45:36;6.35;;;4.30;;
75655;SDS011;64252;51.094;13.714;2023-08-24T03:48:03;7.57;;;4.93;;
75655;SDS011;64252;51.094;13.714;2023-08-24T03:50:29;7.25;;;4.97;;
75655;SDS011;64252;51.094;13.714;2023-08-24T03:52:55;8.05;;;4.63;;
75655;SDS011;64252;51.094;13.714;2023-08-24T03:55:21;8.27;;;4.85;;
75655;SDS011;64252;51.094;13.714;2023-08-24T03:57:47;7.63;;;5.13;;
75655;SDS011;64252;51.094;13.714;2023-08-24T04:00:12;7.00;;;4.70;;
75655;SDS011;64252;51.094;13.714;2023-08-24T04:02:40;8.60;;;5.10;;
75655;SDS011;64252;51.094;13.714;2023-08-24T04:05:15;6.80;;;4.78;;
75655;SDS011;64252;51.094;13.714;2023-08-24T04:07:41;6.22;;;4.80;;
75655;SDS011;64252;51.094;13.714;2023-08-24T04:10:08;6.88;;;4.90;;
75655;SDS011;64252;51.094;13.714;2023-08-24T04:12:45;7.60;;;4.47;;
75655;SDS011;64252;51.094;13.714;2023-08-24T04:15:17;5.47;;;4.00;;
75655;SDS011;64252;51.094;13.714;2023-08-24T04:17:43;10.23;;;4.88;;
75655;SDS011;64252;51.094;13.714;2023-08-24T04:20:10;7.63;;;4.28;;
75655;SDS011;64252;51.094;13.714;2023-08-24T04:22:37;9.55;;;4.20;;
75655;SDS011;64252;51.094;13.714;2023-08-24T04:25:03;7.93;;;4.18;;
75655;SDS011;64252;51.094;13.714;2023-08-24T04:27:31;8.23;;;4.72;;
75655;SDS011;64252;51.094;13.714;2023-08-24T04:29:58;8.70;;;5.03;;
75655;SDS011;64252;51.094;13.714;2023-08-24T04:32:25;6.80;;;4.90;;
75655;SDS011;64252;51.094;13.714;2023-08-24T04:34:52;9.05;;;5.43;;
75655;SDS011;64252;51.094;13.714;2023-08-24T04:37:18;7.00;;;4.90;;
75655;SDS011;64252;51.094;13.714;2023-08-24T04:39:44;6.70;;;5.18;;
75655;SDS011;64252;51.094;13.714;2023-08-24T04:42:10;11.98;;;5.47;;
75655;SDS011;64252;51.094;13.714;2023-08-24T04:44:36;10.18;;;4.72;;
75655;SDS011;64252;51.094;13.714;2023-08-24T04:47:01;7.53;;;4.47;;
75655;SDS011;64252;51.094;13.714;2023-08-24T04:49:27;7.72;;;4.50;;
75655;SDS011;64252;51.094;13.714;2023-08-24T04:51:55;7.57;;;4.80;;
75655;SDS011;64252;51.094;13.714;2023-08-24T04:54:20;8.07;;;4.75;;
75655;SDS011;64252;51.094;13.714;2023-08-24T04:56:46;8.63;;;4.70;;
75655;SDS011;64252;51.094;13.714;2023-08-24T04:59:12;8.73;;;4.97;;
75655;SDS011;64252;51.094;13.714;2023-08-24T05:01:41;7.00;;;4.68;;
75655;SDS011;64252;51.094;13.714;2023-08-24T05:04:07;9.88;;;4.13;;
75655;SDS011;64252;51.094;13.714;2023-08-24T05:06:32;6.47;;;4.22;;
75655;SDS011;64252;51.094;13.714;2023-08-24T05:08:58;5.95;;;3.92;;
75655;SDS011;64252;51.094;13.714;2023-08-24T05:11:27;5.88;;;4.07;;
75655;SDS011;64252;51.094;13.714;2023-08-24T05:13:56;8.02;;;4.72;;
75655;SDS011;64252;51.094;13.714;2023-08-24T05:16:22;7.43;;;5.03;;
75655;SDS011;64252;51.094;13.714;2023-08-24T05:18:48;7.00;;;4.72;;
75655;SDS011;64252;51.094;13.714;2023-08-24T05:21:14;8.85;;;4.75;;
75655;SDS011;64252;51.094;13.714;2023-08-24T05:23:39;8.63;;;3.80;;
75655;SDS011;64252;51.094;13.714;2023-08-24T05:26:05;6.53;;;4.40;;
75655;SDS011;64252;51.094;13.714;2023-08-24T05:28:31;7.75;;;4.80;;
75655;SDS011;64252;51.094;13.714;2023-08-24T05:30:57;8.15;;;4.82;;
75655;SDS011;64252;51.094;13.714;2023-08-24T05:33:24;6.30;;;4.25;;
75655;SDS011;64252;51.094;13.714;2023-08-24T05:35:50;8.07;;;5.22;;
75655;SDS011;64252;51.094;13.714;2023-08-24T05:38:17;9.32;;;4.78;;
75655;SDS011;64252;51.094;13.714;2023-08-24T05:40:49;8.55;;;4.50;;
75655;SDS011;64252;51.094;13.714;2023-08-24T05:43:18;6.40;;;4.10;;
75655;SDS011;64252;51.094;13.714;2023-08-24T05:45:48;11.15;;;4.90;;
75655;SDS011;64252;51.094;13.714;2023-08-24T05:48:14;6.53;;;4.00;;
75655;SDS011;64252;51.094;13.714;2023-08-24T05:50:46;6.53;;;4.13;;
75655;SDS011;64252;51.094;13.714;2023-08-24T05:53:14;5.85;;;4.03;;
75655;SDS011;64252;51.094;13.714;2023-08-24T05:55:40;19.92;;;5.88;;
75655;SDS011;64252;51.094;13.714;2023-08-24T05:58:05;5.82;;;3.47;;
75655;SDS011;64252;51.094;13.714;2023-08-24T06:00:31;6.45;;;3.20;;
75655;SDS011;64252;51.094;13.714;2023-08-24T06:02:58;4.78;;;3.35;;
75655;SDS011;64252;51.094;13.714;2023-08-24T06:05:23;5.40;;;3.70;;
75655;SDS011;64252;51.094;13.714;2023-08-24T06:07:49;8.93;;;3.67;;
75655;SDS011;64252;51.094;13.714;2023-08-24T06:10:15;6.13;;;3.70;;
75655;SDS011;64252;51.094;13.714;2023-08-24T06:12:41;6.10;;;3.78;;
75655;SDS011;64252;51.094;13.714;2023-08-24T06:15:08;8.43;;;4.05;;
75655;SDS011;64252;51.094;13.714;2023-08-24T06:17:36;6.57;;;3.80;;
75655;SDS011;64252;51.094;13.714;2023-08-24T06:20:04;7.28;;;4.68;;
75655;SDS011;64252;51.094;13.714;2023-08-24T06:22:30;7.13;;;3.83;;
75655;SDS011;64252;51.094;13.714;2023-08-24T06:24:57;5.57;;;3.30;;
75655;SDS011;64252;51.094;13.714;2023-08-24T06:27:26;6.85;;;4.22;;
75655;SDS011;64252;51.094;13.714;2023-08-24T06:29:52;5.32;;;3.47;;
75655;SDS011;64252;51.094;13.714;2023-08-24T06:32:17;5.93;;;3.60;;
75655;SDS011;64252;51.094;13.714;2023-08-24T06:34:43;7.72;;;4.28;;
75655;SDS011;64252;51.094;13.714;2023-08-24T06:37:09;8.48;;;3.92;;
75655;SDS011;64252;51.094;13.714;2023-08-24T06:39:36;5.13;;;3.35;;
75655;SDS011;64252;51.094;13.714;2023-08-24T06:42:02;5.82;;;3.50;;
75655;SDS011;64252;51.094;13.714;2023-08-24T06:44:29;8.43;;;3.70;;
75655;SDS011;64252;51.094;13.714;2023-08-24T06:46:55;6.43;;;3.33;;
75655;SDS011;64252;51.094;13.714;2023-08-24T06:49:21;9.98;;;3.63;;
75655;SDS011;64252;51.094;13.714;2023-08-24T06:51:46;7.65;;;3.60;;
75655;SDS011;64252;51.094;13.714;2023-08-24T06:54:12;5.03;;;3.13;;
75655;SDS011;64252;51.094;13.714;2023-08-24T06:56:39;9.20;;;3.72;;
75655;SDS011;64252;51.094;13.714;2023-08-24T06:59:05;8.32;;;3.08;;
75655;SDS011;64252;51.094;13.714;2023-08-24T07:01:31;5.00;;;2.70;;
75655;SDS011;64252;51.094;13.714;2023-08-24T07:03:57;7.22;;;2.70;;
75655;SDS011;64252;51.094;13.714;2023-08-24T07:06:22;5.13;;;2.30;;
75655;SDS011;64252;51.094;13.714;2023-08-24T07:08:49;5.63;;;2.53;;
75655;SDS011;64252;51.094;13.714;2023-08-24T07:11:15;5.45;;;2.30;;
75655;SDS011;64252;51.094;13.714;2023-08-24T07:13:41;4.75;;;2.78;;
75655;SDS011;64252;51.094;13.714;2023-08-24T07:16:07;6.65;;;2.58;;
75655;SDS011;64252;51.094;13.714;2023-08-24T07:18:33;3.97;;;2.03;;
75655;SDS011;64252;51.094;13.714;2023-08-24T07:20:59;5.20;;;2.28;;
75655;SDS011;64252;51.094;13.714;2023-08-24T07:23:25;6.30;;;2.75;;
75655;SDS011;64252;51.094;13.714;2023-08-24T07:25:51;4.93;;;3.10;;
75655;SDS011;64252;51.094;13.714;2023-08-24T07:28:17;6.22;;;2.90;;
75655;SDS011;64252;51.094;13.714;2023-08-24T07:30:42;5.40;;;2.90;;
75655;SDS011;64252;51.094;13.714;2023-08-24T07:33:08;5.18;;;3.03;;
75655;SDS011;64252;51.094;13.714;2023-08-24T07:38:06;5.80;;;3.00;;
75655;SDS011;64252;51.094;13.714;2023-08-24T07:40:32;6.18;;;2.58;;
75655;SDS011;64252;51.094;13.714;2023-08-24T07:42:58;5.38;;;2.80;;
75655;SDS011;64252;51.094;13.714;2023-08-24T07:45:24;6.47;;;2.90;;
75655;SDS011;64252;51.094;13.714;2023-08-24T07:47:50;5.63;;;3.30;;
75655;SDS011;64252;51.094;13.714;2023-08-24T07:50:16;6.13;;;2.75;;
75655;SDS011;64252;51.094;13.714;2023-08-24T07:52:42;5.25;;;2.92;;
75655;SDS011;64252;51.094;13.714;2023-08-24T07:55:08;4.85;;;2.55;;
75655;SDS011;64252;51.094;13.714;2023-08-24T07:57:35;5.63;;;2.90;;
75655;SDS011;64252;51.094;13.714;2023-08-24T08:00:07;5.63;;;2.55;;
75655;SDS011;64252;51.094;13.714;2023-08-24T08:02:41;4.47;;;2.38;;
75655;SDS011;64252;51.094;13.714;2023-08-24T08:05:07;5.35;;;2.33;;
75655;SDS011;64252;51.094;13.714;2023-08-24T08:07:36;4.55;;;2.33;;
75655;SDS011;64252;51.094;13.714;2023-08-24T08:10:02;5.03;;;2.75;;
75655;SDS011;64252;51.094;13.714;2023-08-24T08:12:27;5.78;;;2.20;;
75655;SDS011;64252;51.094;13.714;2023-08-24T08:14:54;5.45;;;2.00;;
75655;SDS011;64252;51.094;13.714;2023-08-24T08:17:21;4.07;;;2.33;;
75655;SDS011;64252;51.094;13.714;2023-08-24T08:19:48;4.05;;;2.30;;
75655;SDS011;64252;51.094;13.714;2023-08-24T08:22:14;6.32;;;2.60;;
75655;SDS011;64252;51.094;13.714;2023-08-24T08:24:41;5.03;;;2.10;;
75655;SDS011;64252;51.094;13.714;2023-08-24T08:27:06;4.43;;;2.10;;
75655;SDS011;64252;51.094;13.714;2023-08-24T08:29:33;9.30;;;2.63;;
75655;SDS011;64252;51.094;13.714;2023-08-24T08:31:58;4.43;;;2.25;;
75655;SDS011;64252;51.094;13.714;2023-08-24T08:34:24;5.57;;;2.30;;
75655;SDS011;64252;51.094;13.714;2023-08-24T08:36:50;3.72;;;1.90;;
75655;SDS011;64252;51.094;13.714;2023-08-24T08:39:15;5.90;;;2.40;;
75655;SDS011;64252;51.094;13.714;2023-08-24T08:41:43;4.47;;;1.98;;
75655;SDS011;64252;51.094;13.714;2023-08-24T08:44:13;6.28;;;2.20;;
75655;SDS011;64252;51.094;13.714;2023-08-24T08:46:40;6.38;;;2.47;;
75655;SDS011;64252;51.094;13.714;2023-08-24T08:49:07;5.50;;;2.47;;
75655;SDS011;64252;51.094;13.714;2023-08-24T08:51:36;5.30;;;1.80;;
75655;SDS011;64252;51.094;13.714;2023-08-24T08:54:02;3.80;;;1.73;;
75655;SDS011;64252;51.094;13.714;2023-08-24T08:56:30;3.28;;;1.77;;
75655;SDS011;64252;51.094;13.714;2023-08-24T08:58:56;5.28;;;1.83;;
75655;SDS011;64252;51.094;13.714;2023-08-24T09:01:24;6.78;;;2.05;;
75655;SDS011;64252;51.094;13.714;2023-08-24T09:03:51;3.60;;;1.63;;
75655;SDS011;64252;51.094;13.714;2023-08-24T09:06:17;6.38;;;2.00;;
75655;SDS011;64252;51.094;13.714;2023-08-24T09:08:43;5.00;;;1.98;;
75655;SDS011;64252;51.094;13.714;2023-08-24T09:11:09;4.80;;;2.05;;
75655;SDS011;64252;51.094;13.714;2023-08-24T09:13:35;4.60;;;2.17;;
75655;SDS011;64252;51.094;13.714;2023-08-24T09:16:08;4.20;;;1.95;;
75655;SDS011;64252;51.094;13.714;2023-08-24T09:18:41;3.95;;;1.77;;
75655;SDS011;64252;51.094;13.714;2023-08-24T09:21:14;4.35;;;1.85;;
75655;SDS011;64252;51.094;13.714;2023-08-24T09:23:44;3.58;;;1.88;;
75655;SDS011;64252;51.094;13.714;2023-08-24T09:26:17;4.90;;;2.38;;
75655;SDS011;64252;51.094;13.714;2023-08-24T09:28:53;4.20;;;2.22;;
75655;SDS011;64252;51.094;13.714;2023-08-24T09:31:18;4.07;;;2.10;;
75655;SDS011;64252;51.094;13.714;2023-08-24T09:33:46;3.65;;;1.60;;
75655;SDS011;64252;51.094;13.714;2023-08-24T09:36:13;4.97;;;2.00;;
75655;SDS011;64252;51.094;13.714;2023-08-24T09:38:45;3.80;;;1.67;;
75655;SDS011;64252;51.094;13.714;2023-08-24T09:41:15;7.03;;;2.03;;
75655;SDS011;64252;51.094;13.714;2023-08-24T09:43:41;4.40;;;1.75;;
75655;SDS011;64252;51.094;13.714;2023-08-24T09:46:07;5.03;;;1.90;;
75655;SDS011;64252;51.094;13.714;2023-08-24T09:48:33;5.55;;;2.30;;
75655;SDS011;64252;51.094;13.714;2023-08-24T09:50:59;3.80;;;1.85;;
75655;SDS011;64252;51.094;13.714;2023-08-24T09:53:31;4.35;;;1.83;;
75655;SDS011;64252;51.094;13.714;2023-08-24T09:56:02;3.00;;;1.60;;
75655;SDS011;64252;51.094;13.714;2023-08-24T09:58:28;4.75;;;1.92;;
75655;SDS011;64252;51.094;13.714;2023-08-24T10:00:55;7.32;;;1.70;;
75655;SDS011;64252;51.094;13.714;2023-08-24T10:03:25;4.97;;;2.08;;
75655;SDS011;64252;51.094;13.714;2023-08-24T10:05:52;5.95;;;2.42;;
75655;SDS011;64252;51.094;13.714;2023-08-24T10:08:21;3.78;;;1.70;;
75655;SDS011;64252;51.094;13.714;2023-08-24T10:10:53;5.80;;;2.03;;
75655;SDS011;64252;51.094;13.714;2023-08-24T10:15:53;5.75;;;1.95;;
75655;SDS011;64252;51.094;13.714;2023-08-24T10:18:21;6.25;;;1.90;;
75655;SDS011;64252;51.094;13.714;2023-08-24T10:20:49;5.05;;;1.98;;
75655;SDS011;64252;51.094;13.714;2023-08-24T10:23:15;8.07;;;2.17;;
75655;SDS011;64252;51.094;13.714;2023-08-24T10:25:42;4.82;;;1.95;;
75655;SDS011;64252;51.094;13.714;2023-08-24T10:28:09;4.65;;;2.17;;
75655;SDS011;64252;51.094;13.714;2023-08-24T10:30:36;6.75;;;1.88;;
75655;SDS011;64252;51.094;13.714;2023-08-24T10:35:33;4.25;;;1.90;;
75655;SDS011;64252;51.094;13.714;2023-08-24T10:37:59;3.33;;;1.77;;
75655;SDS011;64252;51.094;13.714;2023-08-24T10:40:32;3.40;;;1.92;;
75655;SDS011;64252;51.094;13.714;2023-08-24T10:43:02;3.47;;;1.70;;
75655;SDS011;64252;51.094;13.714;2023-08-24T10:45:53;4.32;;;1.70;;
75655;SDS011;64252;51.094;13.714;2023-08-24T10:48:25;4.70;;;1.90;;
75655;SDS011;64252;51.094;13.714;2023-08-24T10:56:38;5.32;;;2.33;;
75655;SDS011;64252;51.094;13.714;2023-08-24T10:59:15;3.85;;;1.83;;
75655;SDS011;64252;51.094;13.714;2023-08-24T11:01:42;3.58;;;1.83;;
75655;SDS011;64252;51.094;13.714;2023-08-24T11:04:19;5.55;;;2.92;;
75655;SDS011;64252;51.094;13.714;2023-08-24T11:09:18;4.38;;;1.88;;
75655;SDS011;64252;51.094;13.714;2023-08-24T11:12:00;5.70;;;2.30;;
75655;SDS011;64252;51.094;13.714;2023-08-24T11:14:28;4.30;;;2.20;;
75655;SDS011;64252;51.094;13.714;2023-08-24T11:17:00;4.07;;;1.77;;
75655;SDS011;64252;51.094;13.714;2023-08-24T11:19:27;6.43;;;1.90;;
75655;SDS011;64252;51.094;13.714;2023-08-24T11:21:54;5.28;;;2.05;;
75655;SDS011;64252;51.094;13.714;2023-08-24T11:24:20;5.18;;;1.90;;
75655;SDS011;64252;51.094;13.714;2023-08-24T11:26:46;6.18;;;2.25;;
75655;SDS011;64252;51.094;13.714;2023-08-24T11:29:13;5.15;;;2.10;;
75655;SDS011;64252;51.094;13.714;2023-08-24T11:31:40;5.50;;;2.50;;
75655;SDS011;64252;51.094;13.714;2023-08-24T11:34:06;3.90;;;2.20;;
75655;SDS011;64252;51.094;13.714;2023-08-24T11:36:49;4.32;;;1.92;;
75655;SDS011;64252;51.094;13.714;2023-08-24T11:39:18;4.63;;;1.77;;
75655;SDS011;64252;51.094;13.714;2023-08-24T11:42:06;5.15;;;2.30;;
75655;SDS011;64252;51.094;13.714;2023-08-24T11:44:47;5.95;;;2.25;;
75655;SDS011;64252;51.094;13.714;2023-08-24T11:47:14;4.35;;;1.80;;
75655;SDS011;64252;51.094;13.714;2023-08-24T11:49:40;3.63;;;1.90;;
75655;SDS011;64252;51.094;13.714;2023-08-24T11:52:09;5.90;;;2.22;;
75655;SDS011;64252;51.094;13.714;2023-08-24T11:54:35;6.15;;;2.20;;
75655;SDS011;64252;51.094;13.714;2023-08-24T11:57:08;8.20;;;2.10;;
75655;SDS011;64252;51.094;13.714;2023-08-24T11:59:34;5.28;;;2.05;;
75655;SDS011;64252;51.094;13.714;2023-08-24T12:02:02;6.03;;;2.00;;
75655;SDS011;64252;51.094;13.714;2023-08-24T12:04:37;4.03;;;1.70;;
75655;SDS011;64252;51.094;13.714;2023-08-24T12:07:11;5.70;;;2.10;;
75655;SDS011;64252;51.094;13.714;2023-08-24T12:09:37;4.25;;;1.98;;
75655;SDS011;64252;51.094;13.714;2023-08-24T12:12:13;6.47;;;2.00;;
75655;SDS011;64252;51.094;13.714;2023-08-24T12:14:41;4.10;;;2.00;;
75655;SDS011;64252;51.094;13.714;2023-08-24T12:17:09;3.72;;;2.13;;
75655;SDS011;64252;51.094;13.714;2023-08-24T12:19:35;6.25;;;2.10;;
75655;SDS011;64252;51.094;13.714;2023-08-24T12:22:00;4.57;;;2.15;;
75655;SDS011;64252;51.094;13.714;2023-08-24T12:24:26;4.80;;;1.90;;
75655;SDS011;64252;51.094;13.714;2023-08-24T12:26:55;5.35;;;2.10;;
75655;SDS011;64252;51.094;13.714;2023-08-24T12:29:24;7.90;;;2.38;;
75655;SDS011;64252;51.094;13.714;2023-08-24T12:31:50;3.88;;;2.10;;
75655;SDS011;64252;51.094;13.714;2023-08-24T12:34:16;4.75;;;1.98;;
75655;SDS011;64252;51.094;13.714;2023-08-24T12:36:42;4.07;;;1.65;;
75655;SDS011;64252;51.094;13.714;2023-08-24T12:39:10;3.78;;;1.70;;
75655;SDS011;64252;51.094;13.714;2023-08-24T12:41:40;4.75;;;1.85;;
75655;SDS011;64252;51.094;13.714;2023-08-24T12:44:06;3.95;;;1.80;;
75655;SDS011;64252;51.094;13.714;2023-08-24T12:46:34;4.93;;;1.90;;
75655;SDS011;64252;51.094;13.714;2023-08-24T12:49:02;3.67;;;1.67;;
75655;SDS011;64252;51.094;13.714;2023-08-24T12:51:29;5.18;;;2.25;;
75655;SDS011;64252;51.094;13.714;2023-08-24T12:53:55;6.40;;;1.70;;
75655;SDS011;64252;51.094;13.714;2023-08-24T12:56:20;4.47;;;1.85;;
75655;SDS011;64252;51.094;13.714;2023-08-24T12:58:46;4.18;;;1.80;;
75655;SDS011;64252;51.094;13.714;2023-08-24T13:01:12;4.60;;;2.10;;
75655;SDS011;64252;51.094;13.714;2023-08-24T13:03:37;5.65;;;1.92;;
75655;SDS011;64252;51.094;13.714;2023-08-24T13:06:05;7.00;;;1.83;;
75655;SDS011;64252;51.094;13.714;2023-08-24T13:08:31;4.20;;;1.90;;
75655;SDS011;64252;51.094;13.714;2023-08-24T13:11:01;4.68;;;1.83;;
75655;SDS011;64252;51.094;13.714;2023-08-24T13:13:28;4.47;;;2.08;;
75655;SDS011;64252;51.094;13.714;2023-08-24T13:15:53;4.07;;;1.98;;
75655;SDS011;64252;51.094;13.714;2023-08-24T13:18:19;4.63;;;1.95;;
75655;SDS011;64252;51.094;13.714;2023-08-24T13:20:45;5.97;;;1.65;;
75655;SDS011;64252;51.094;13.714;2023-08-24T13:23:11;5.38;;;1.88;;
75655;SDS011;64252;51.094;13.714;2023-08-24T13:25:36;3.88;;;1.85;;
75655;SDS011;64252;51.094;13.714;2023-08-24T13:28:02;7.07;;;2.10;;
75655;SDS011;64252;51.094;13.714;2023-08-24T13:30:28;4.43;;;1.90;;
75655;SDS011;64252;51.094;13.714;2023-08-24T13:32:54;3.67;;;1.73;;
75655;SDS011;64252;51.094;13.714;2023-08-24T13:35:19;5.15;;;1.98;;
75655;SDS011;64252;51.094;13.714;2023-08-24T13:37:46;5.57;;;1.95;;
75655;SDS011;64252;51.094;13.714;2023-08-24T13:40:12;8.50;;;1.80;;
75655;SDS011;64252;51.094;13.714;2023-08-24T13:42:38;4.38;;;2.03;;
75655;SDS011;64252;51.094;13.714;2023-08-24T13:45:06;6.57;;;2.22;;
75655;SDS011;64252;51.094;13.714;2023-08-24T13:47:32;3.78;;;2.00;;
75655;SDS011;64252;51.094;13.714;2023-08-24T13:49:58;5.20;;;1.85;;
75655;SDS011;64252;51.094;13.714;2023-08-24T13:52:24;3.90;;;2.00;;
75655;SDS011;64252;51.094;13.714;2023-08-24T13:54:49;6.28;;;2.10;;
75655;SDS011;64252;51.094;13.714;2023-08-24T13:57:15;4.00;;;2.20;;
75655;SDS011;64252;51.094;13.714;2023-08-24T13:59:41;3.42;;;2.03;;
75655;SDS011;64252;51.094;13.714;2023-08-24T14:02:07;6.35;;;2.40;;
75655;SDS011;64252;51.094;13.714;2023-08-24T14:04:33;4.07;;;1.98;;
75655;SDS011;64252;51.094;13.714;2023-08-24T14:06:59;4.03;;;2.33;;
75655;SDS011;64252;51.094;13.714;2023-08-24T14:09:25;5.65;;;2.28;;
75655;SDS011;64252;51.094;13.714;2023-08-24T14:11:50;9.00;;;2.10;;
75655;SDS011;64252;51.094;13.714;2023-08-24T14:14:18;5.15;;;1.95;;
75655;SDS011;64252;51.094;13.714;2023-08-24T14:16:44;5.18;;;1.92;;
75655;SDS011;64252;51.094;13.714;2023-08-24T14:19:10;4.40;;;2.08;;
75655;SDS011;64252;51.094;13.714;2023-08-24T14:21:36;3.80;;;2.00;;
75655;SDS011;64252;51.094;13.714;2023-08-24T14:24:02;6.13;;;2.17;;
75655;SDS011;64252;51.094;13.714;2023-08-24T14:26:28;3.95;;;2.20;;
75655;SDS011;64252;51.094;13.714;2023-08-24T14:28:54;5.60;;;2.25;;
75655;SDS011;64252;51.094;13.714;2023-08-24T14:31:28;6.35;;;1.92;;
75655;SDS011;64252;51.094;13.714;2023-08-24T14:33:55;7.65;;;2.40;;
75655;SDS011;64252;51.094;13.714;2023-08-24T14:36:21;6.65;;;2.10;;
75655;SDS011;64252;51.094;13.714;2023-08-24T14:38:48;4.57;;;2.10;;
75655;SDS011;64252;51.094;13.714;2023-08-24T14:41:15;3.88;;;1.98;;
75655;SDS011;64252;51.094;13.714;2023-08-24T14:43:41;5.18;;;2.03;;
75655;SDS011;64252;51.094;13.714;2023-08-24T14:46:07;3.88;;;1.80;;
75655;SDS011;64252;51.094;13.714;2023-08-24T14:48:33;3.83;;;2.22;;
75655;SDS011;64252;51.094;13.714;2023-08-24T14:51:00;4.63;;;2.30;;
75655;SDS011;64252;51.094;13.714;2023-08-24T14:53:26;3.95;;;2.10;;
75655;SDS011;64252;51.094;13.714;2023-08-24T14:55:53;6.25;;;2.10;;
75655;SDS011;64252;51.094;13.714;2023-08-24T14:58:23;3.78;;;2.10;;